Time;durP1;ratioP1;P1;durP2;ratioP2;P2;SDS_P1;SDS_P2;PMS_P1;PMS_P2;Temp;Humidity;BMP_temperature;BMP_pressure;BME280_temperature;BME280_humidity;BME280_pressure;Samples;Min_cycle;Max_cycle;Signal;HPM_P1;HPM_P2
2022/07/21 00:00:21;;;;;;;8.45;5.65;;;;;;;13.72;100.00;100493.36;1703966;83;21621;-86
2022/07/21 00:02:49;;;;;;;8.20;5.42;;;;;;;13.67;100.00;100493.77;1703904;83;21113;-85
2022/07/21 00:05:17;;;;;;;5.70;5.10;;;;;;;13.65;100.00;100497.50;1714520;83;21200;-86
2022/07/21 00:07:45;;;;;;;6.30;5.40;;;;;;;13.61;100.00;100500.03;1697011;83;21087;-86
2022/07/21 00:10:13;;;;;;;9.63;5.97;;;;;;;13.58;100.00;100499.02;1699636;84;21044;-85
2022/07/21 00:12:41;;;;;;;8.30;5.42;;;;;;;13.55;100.00;100502.70;1674889;85;21540;-87
2022/07/21 00:15:11;;;;;;;12.73;6.35;;;;;;;13.52;100.00;100501.69;1691382;84;21061;-86
2022/07/21 00:17:39;;;;;;;8.38;5.78;;;;;;;13.51;100.00;100505.27;1720176;82;21113;-85
2022/07/21 00:20:09;;;;;;;7.15;5.47;;;;;;;13.50;100.00;100503.61;1698830;83;21428;-86
2022/07/21 00:22:36;;;;;;;6.42;5.40;;;;;;;13.48;100.00;100506.38;1691774;83;21025;-85
2022/07/21 00:25:05;;;;;;;9.65;5.55;;;;;;;13.46;100.00;100501.75;1699412;83;21054;-86
2022/07/21 00:27:33;;;;;;;8.03;5.60;;;;;;;13.46;100.00;100503.55;1700032;82;21053;-86
2022/07/21 00:30:01;;;;;;;6.53;5.35;;;;;;;13.46;100.00;100507.48;1736244;81;21147;-86
2022/07/21 00:32:29;;;;;;;7.12;5.30;;;;;;;13.43;100.00;100513.78;1729470;82;21622;-86
2022/07/21 00:34:56;;;;;;;5.72;5.20;;;;;;;13.43;100.00;100505.94;1724456;82;21089;-85
2022/07/21 00:37:27;;;;;;;6.40;5.05;;;;;;;13.40;100.00;100498.38;1754666;80;21033;-86
2022/07/21 00:39:55;;;;;;;6.35;5.33;;;;;;;13.38;100.00;100505.50;1725867;82;21041;-85
2022/07/21 00:42:29;;;;;;;5.35;4.85;;;;;;;13.36;100.00;100498.27;1710223;83;21084;-85
2022/07/21 00:44:58;;;;;;;6.40;5.80;;;;;;;13.35;100.00;100505.30;1721572;83;21006;-86
2022/07/21 00:47:28;;;;;;;5.37;4.87;;;;;;;13.33;100.00;100496.75;1730899;82;21096;-85
2022/07/21 00:49:59;;;;;;;5.25;4.70;;;;;;;13.32;100.00;100502.13;1718047;83;21003;-85
2022/07/21 00:52:26;;;;;;;4.62;4.22;;;;;;;13.32;100.00;100490.36;1730916;82;21018;-85
2022/07/21 00:54:54;;;;;;;6.70;5.10;;;;;;;13.31;100.00;100486.09;1736285;82;21164;-85
2022/07/21 00:57:21;;;;;;;6.05;4.85;;;;;;;13.29;100.00;100488.85;1715223;82;21057;-85
2022/07/21 00:59:48;;;;;;;8.13;5.08;;;;;;;13.29;100.00;100493.23;1731001;82;21679;-84
2022/07/21 01:02:16;;;;;;;5.53;4.75;;;;;;;13.24;100.00;100494.95;1725016;81;21550;-85
2022/07/21 01:04:44;;;;;;;5.10;4.60;;;;;;;13.21;100.00;100488.20;1719464;82;21542;-85
2022/07/21 01:07:11;;;;;;;6.25;5.17;;;;;;;13.19;100.00;100488.81;1734219;82;21539;-85
2022/07/21 01:09:39;;;;;;;6.03;5.05;;;;;;;13.15;100.00;100490.06;1728277;82;21052;-87
2022/07/21 01:12:07;;;;;;;4.67;4.28;;;;;;;13.13;100.00;100491.98;1732784;82;21089;-85
2022/07/21 01:14:35;;;;;;;5.20;4.70;;;;;;;13.12;100.00;100494.73;1706469;82;20998;-85
2022/07/21 01:17:03;;;;;;;7.30;4.62;;;;;;;13.09;100.00;100497.14;1715622;82;21029;-86
2022/07/21 01:19:32;;;;;;;5.33;4.83;;;;;;;13.08;100.00;100496.80;1719441;82;21852;-87
2022/07/21 01:21:59;;;;;;;5.97;5.10;;;;;;;13.07;100.00;100495.14;1741064;82;21801;-87
2022/07/21 01:24:28;;;;;;;8.10;5.10;;;;;;;13.06;100.00;100500.02;1730776;81;21062;-85
2022/07/21 01:26:55;;;;;;;5.70;4.30;;;;;;;13.03;100.00;100498.97;1736251;82;21032;-86
2022/07/21 01:29:24;;;;;;;5.92;4.62;;;;;;;13.00;100.00;100496.64;1713745;82;21100;-86
2022/07/21 01:31:51;;;;;;;6.55;4.20;;;;;;;12.99;100.00;100501.52;1730492;82;21538;-85
2022/07/21 01:34:19;;;;;;;6.47;4.87;;;;;;;12.97;100.00;100498.20;1723533;82;21064;-85
2022/07/21 01:36:47;;;;;;;5.20;4.70;;;;;;;12.92;100.00;100496.83;1730656;82;21455;-85
2022/07/21 01:42:01;;;;;;;4.80;4.40;;;;;;;12.87;100.00;100495.08;1730625;81;22269;-86
2022/07/21 01:44:28;;;;;;;5.20;4.70;;;;;;;12.87;100.00;100499.00;1722473;82;21142;-86
2022/07/21 01:46:55;;;;;;;9.05;5.03;;;;;;;12.85;100.00;100499.63;1732986;81;21029;-87
2022/07/21 01:49:23;;;;;;;5.72;4.55;;;;;;;12.83;100.00;100500.70;1714601;82;21021;-86
2022/07/21 01:51:51;;;;;;;4.72;4.33;;;;;;;12.82;100.00;100499.89;1729863;81;21029;-86
2022/07/21 01:54:18;;;;;;;4.20;3.80;;;;;;;12.83;100.00;100493.70;1724769;82;21060;-87
2022/07/21 01:56:45;;;;;;;6.85;4.22;;;;;;;12.83;100.00;100491.55;1738499;82;21151;-86
2022/07/21 01:59:13;;;;;;;5.25;4.33;;;;;;;12.83;100.00;100489.79;1727573;82;22090;-86
2022/07/21 02:01:40;;;;;;;5.00;4.15;;;;;;;12.82;100.00;100489.44;1739107;82;21622;-86
2022/07/21 02:04:07;;;;;;;6.62;4.40;;;;;;;12.82;100.00;100490.74;1738653;82;21503;-85
2022/07/21 02:06:36;;;;;;;11.70;5.08;;;;;;;12.83;100.00;100494.17;1720588;82;21032;-85
2022/07/21 02:09:03;;;;;;;7.45;4.20;;;;;;;12.85;100.00;100493.56;1734182;82;21259;-85
2022/07/21 02:11:30;;;;;;;4.87;4.35;;;;;;;12.87;100.00;100490.34;1715315;82;21030;-86
2022/07/21 02:13:57;;;;;;;6.62;4.00;;;;;;;12.89;100.00;100494.47;1738060;81;21599;-85
2022/07/21 02:16:25;;;;;;;5.28;4.05;;;;;;;12.91;100.00;100491.25;1737666;82;20974;-85
2022/07/21 02:18:53;;;;;;;4.85;3.67;;;;;;;12.92;100.00;100494.22;1728824;81;21037;-85
2022/07/21 02:21:20;;;;;;;4.37;3.98;;;;;;;12.92;100.00;100493.38;1736410;82;21267;-85
2022/07/21 02:23:48;;;;;;;5.25;4.75;;;;;;;12.90;100.00;100496.12;1718627;82;21918;-85
2022/07/21 02:26:15;;;;;;;4.47;4.08;;;;;;;12.88;100.00;100495.42;1724613;82;21450;-87
2022/07/21 02:28:44;;;;;;;7.08;4.35;;;;;;;12.84;100.00;100490.14;1727326;82;21113;-86
2022/07/21 02:31:11;;;;;;;4.37;3.87;;;;;;;12.84;100.00;100494.52;1697288;83;20978;-85
2022/07/21 02:33:38;;;;;;;4.72;4.28;;;;;;;12.82;100.00;100488.13;1719077;83;21222;-86
2022/07/21 02:36:07;;;;;;;4.53;4.12;;;;;;;12.81;100.00;100490.39;1703110;83;21022;-86
2022/07/21 02:38:35;;;;;;;5.15;4.67;;;;;;;12.80;100.00;100483.51;1710676;83;21007;-85
2022/07/21 02:41:02;;;;;;;5.08;4.10;;;;;;;12.79;100.00;100483.16;1697526;83;21058;-86
2022/07/21 02:43:29;;;;;;;5.47;4.22;;;;;;;12.78;100.00;100483.66;1697436;83;21559;-86
2022/07/21 02:45:57;;;;;;;5.87;3.98;;;;;;;12.78;100.00;100482.80;1711042;83;21182;-86
2022/07/21 02:48:24;;;;;;;4.25;3.77;;;;;;;12.78;100.00;100491.95;1708355;83;21057;-85
2022/07/21 02:50:52;;;;;;;6.62;4.17;;;;;;;12.81;100.00;100490.88;1699518;83;21136;-87
2022/07/21 02:53:22;;;;;;;6.30;4.83;;;;;;;12.82;100.00;100501.69;1716231;83;21089;-87
2022/07/21 02:55:55;;;;;;;4.90;4.12;;;;;;;12.82;100.00;100503.80;1701702;83;21041;-85
2022/07/21 02:58:28;;;;;;;4.72;4.25;;;;;;;12.84;100.00;100499.28;1705846;83;21189;-86
2022/07/21 03:01:02;;;;;;;4.58;4.17;;;;;;;12.88;100.00;100503.27;1714639;83;21804;-86
2022/07/21 03:03:33;;;;;;;7.12;4.87;;;;;;;12.91;100.00;100513.93;1692521;84;21091;-86
2022/07/21 03:06:00;;;;;;;7.92;4.08;;;;;;;12.94;100.00;100511.87;1687403;84;21589;-86
2022/07/21 03:08:29;;;;;;;4.60;4.10;;;;;;;12.98;100.00;100515.05;1703866;83;21242;-85
2022/07/21 03:10:56;;;;;;;6.20;4.33;;;;;;;13.01;100.00;100510.06;1699010;83;21143;-86
2022/07/21 03:13:24;;;;;;;5.28;4.05;;;;;;;13.03;100.00;100503.73;1716114;83;21121;-85
2022/07/21 03:15:52;;;;;;;6.53;5.08;;;;;;;13.07;100.00;100504.29;1701824;83;21041;-86
2022/07/21 03:18:19;;;;;;;5.78;4.90;;;;;;;13.09;100.00;100503.68;1706067;82;21562;-85
2022/07/21 03:20:47;;;;;;;8.95;5.10;;;;;;;13.09;100.00;100495.84;1709519;83;21013;-86
2022/07/21 03:23:16;;;;;;;5.05;4.55;;;;;;;13.12;100.00;100490.33;1696431;82;21952;-85
2022/07/21 03:25:43;;;;;;;6.12;5.28;;;;;;;13.16;100.00;100489.57;1713384;82;21618;-85
2022/07/21 03:28:10;;;;;;;7.22;5.15;;;;;;;13.19;100.00;100486.20;1692009;84;21065;-86
2022/07/21 03:30:38;;;;;;;7.95;4.72;;;;;;;13.23;100.00;100486.30;1710368;83;21018;-85
2022/07/21 03:33:05;;;;;;;8.40;4.85;;;;;;;13.27;100.00;100490.77;1712167;83;21520;-86
2022/07/21 03:35:32;;;;;;;5.60;5.08;;;;;;;13.34;100.00;100481.91;1686329;83;21160;-85
2022/07/21 03:38:01;;;;;;;5.75;5.25;;;;;;;13.41;100.00;100485.66;1710172;83;21038;-85
2022/07/21 03:40:35;;;;;;;5.62;4.90;;;;;;;13.49;100.00;100478.41;1709140;83;21508;-85
2022/07/21 03:43:05;;;;;;;6.20;5.60;;;;;;;13.57;100.00;100481.17;1697839;83;21026;-86
2022/07/21 03:45:36;;;;;;;9.30;5.65;;;;;;;13.63;100.00;100475.88;1695232;83;21448;-85
2022/07/21 03:48:06;;;;;;;5.67;5.20;;;;;;;13.65;100.00;100476.07;1703899;82;21149;-85
2022/07/21 03:50:37;;;;;;;8.05;5.33;;;;;;;13.69;100.00;100480.55;1710378;83;21038;-85
2022/07/21 03:53:05;;;;;;;7.35;5.75;;;;;;;13.75;100.00;100481.28;1697552;83;20991;-85
2022/07/21 03:55:33;;;;;;;6.67;5.50;;;;;;;13.77;100.00;100478.05;1715483;83;21050;-85
2022/07/21 03:58:04;;;;;;;7.30;5.62;;;;;;;13.81;100.00;100488.60;1691739;84;21050;-85
2022/07/21 04:00:40;;;;;;;6.22;5.62;;;;;;;13.84;100.00;100485.69;1700567;83;21268;-85
2022/07/21 04:03:08;;;;;;;6.85;5.67;;;;;;;13.90;100.00;100479.08;1711509;83;21073;-85
2022/07/21 04:05:39;;;;;;;7.87;5.75;;;;;;;13.96;100.00;100476.38;1698605;83;21576;-85
2022/07/21 04:08:08;;;;;;;6.30;5.70;;;;;;;14.01;100.00;100478.09;1709235;83;21117;-85
2022/07/21 04:10:37;;;;;;;7.15;5.45;;;;;;;14.08;100.00;100479.17;1710608;83;20978;-84
2022/07/21 04:13:09;;;;;;;6.10;4.92;;;;;;;14.15;100.00;100482.87;1698091;83;21136;-85
2022/07/21 04:15:37;;;;;;;6.95;5.55;;;;;;;14.22;100.00;100476.59;1714787;83;21049;-85
2022/07/21 04:18:05;;;;;;;8.48;5.83;;;;;;;14.31;100.00;100470.97;1704510;83;21027;-86
2022/07/21 04:20:34;;;;;;;6.83;5.50;;;;;;;14.39;100.00;100471.08;1720351;82;21019;-85
2022/07/21 04:23:02;;;;;;;6.72;5.05;;;;;;;14.46;100.00;100477.88;1698169;83;21026;-85
2022/07/21 04:25:29;;;;;;;6.67;5.53;;;;;;;14.50;100.00;100480.57;1694524;83;21853;-86
2022/07/21 04:27:58;;;;;;;5.55;4.92;;;;;;;14.56;100.00;100483.92;1704725;82;20998;-86
2022/07/21 04:30:25;;;;;;;6.80;5.08;;;;;;;14.65;100.00;100482.21;1713418;82;21511;-86
2022/07/21 04:32:53;;;;;;;6.97;5.92;;;;;;;14.74;100.00;100484.49;1725927;83;21096;-85
2022/07/21 04:35:23;;;;;;;6.00;5.25;;;;;;;14.78;100.00;100477.48;1712372;82;21100;-86
2022/07/21 04:37:50;;;;;;;6.50;5.28;;;;;;;14.86;100.00;100478.56;1699409;83;21867;-86
2022/07/21 04:40:18;;;;;;;5.83;5.08;;;;;;;14.95;100.00;100471.95;1696728;83;21098;-86
2022/07/21 04:42:46;;;;;;;6.62;5.90;;;;;;;15.03;100.00;100467.26;1697700;83;21019;-86
2022/07/21 04:45:15;;;;;;;8.25;5.33;;;;;;;15.10;100.00;100468.31;1690779;83;21089;-86
2022/07/21 04:47:52;;;;;;;6.22;5.42;;;;;;;15.17;100.00;100465.12;1717423;82;21073;-85
2022/07/21 04:50:24;;;;;;;6.97;5.97;;;;;;;15.24;100.00;100467.48;1683885;83;21113;-86
2022/07/21 04:52:52;;;;;;;5.67;5.17;;;;;;;15.32;100.00;100468.02;1722232;83;20977;-86
2022/07/21 04:55:20;;;;;;;6.40;5.37;;;;;;;15.38;100.00;100465.64;1705794;82;21059;-86
2022/07/21 04:57:50;;;;;;;5.70;5.12;;;;;;;15.47;100.00;100466.52;1690990;84;21059;-87
2022/07/21 05:00:22;;;;;;;11.10;5.78;;;;;;;15.58;100.00;100475.98;1697205;83;20967;-88
2022/07/21 05:02:51;;;;;;;6.12;5.60;;;;;;;15.66;100.00;100473.42;1703501;83;21124;-87
2022/07/21 05:05:18;;;;;;;7.95;5.95;;;;;;;15.69;100.00;100473.11;1705463;83;21042;-87
2022/07/21 05:07:45;;;;;;;7.30;5.75;;;;;;;15.71;100.00;100473.78;1708640;83;21497;-87
2022/07/21 05:10:15;;;;;;;7.50;6.00;;;;;;;15.80;100.00;100479.09;1714924;82;21139;-86
2022/07/21 05:12:43;;;;;;;5.80;5.28;;;;;;;15.91;100.00;100472.30;1699513;83;21091;-87
2022/07/21 05:15:11;;;;;;;7.40;6.20;;;;;;;16.00;100.00;100473.20;1709020;82;21145;-86
2022/07/21 05:17:41;;;;;;;9.45;5.67;;;;;;;16.07;100.00;100472.41;1717695;82;21601;-86
2022/07/21 05:20:10;;;;;;;6.25;5.15;;;;;;;16.14;100.00;100465.24;1687287;83;21493;-86
2022/07/21 05:22:39;;;;;;;5.43;4.90;;;;;;;16.27;100.00;100464.80;1694882;83;20971;-87
2022/07/21 05:25:07;;;;;;;12.30;5.28;;;;;;;16.45;100.00;100466.05;1695163;83;22300;-86
2022/07/21 05:27:35;;;;;;;5.22;4.65;;;;;;;16.56;100.00;100453.92;1692933;83;21156;-87
2022/07/21 05:30:05;;;;;;;6.47;4.45;;;;;;;16.66;100.00;100452.50;1711767;82;21530;-87
2022/07/21 05:32:32;;;;;;;5.33;4.83;;;;;;;16.73;100.00;100452.20;1731290;81;22279;-86
2022/07/21 05:34:59;;;;;;;5.47;4.97;;;;;;;16.81;100.00;100451.38;1736223;82;21064;-86
2022/07/21 05:37:27;;;;;;;6.10;4.70;;;;;;;16.92;100.00;100451.09;1735710;82;21099;-87
2022/07/21 05:39:54;;;;;;;5.15;4.42;;;;;;;17.05;100.00;100444.55;1731949;82;21156;-87
2022/07/21 05:42:21;;;;;;;4.72;4.30;;;;;;;17.12;100.00;100437.66;1727927;82;21100;-87
2022/07/21 05:44:48;;;;;;;5.10;4.62;;;;;;;17.23;100.00;100433.41;1736315;81;21108;-86
2022/07/21 05:47:17;;;;;;;4.30;3.90;;;;;;;17.32;100.00;100428.48;1729431;82;21324;-87
2022/07/21 05:49:45;;;;;;;4.58;4.17;;;;;;;17.41;100.00;100429.29;1723168;82;21030;-86
2022/07/21 05:52:12;;;;;;;4.10;3.70;;;;;;;17.49;100.00;100431.11;1723882;81;21204;-85
2022/07/21 05:54:39;;;;;;;4.22;3.83;;;;;;;17.60;100.00;100428.13;1722737;81;21085;-85
2022/07/21 05:57:06;;;;;;;4.50;3.98;;;;;;;17.73;100.00;100429.45;1723855;82;21262;-88
2022/07/21 05:59:33;;;;;;;6.22;3.92;;;;;;;17.84;100.00;100429.08;1748488;81;21556;-84
2022/07/21 06:02:01;;;;;;;6.30;3.90;;;;;;;17.96;100.00;100421.20;1734740;81;21046;-85
2022/07/21 06:04:29;;;;;;;5.37;3.70;;;;;;;18.07;100.00;100425.76;1745606;81;21797;-86
2022/07/21 06:06:56;;;;;;;4.72;3.70;;;;;;;18.16;100.00;100420.80;1748344;81;21532;-88
2022/07/21 06:09:23;;;;;;;6.15;3.92;;;;;;;18.27;100.00;100416.48;1718687;83;21585;-85
2022/07/21 06:11:51;;;;;;;3.77;3.42;;;;;;;18.37;100.00;100412.83;1737318;81;21126;-86
2022/07/21 06:14:20;;;;;;;3.90;3.60;;;;;;;18.49;100.00;100410.13;1737177;81;21041;-87
2022/07/21 06:16:47;;;;;;;6.90;3.30;;;;;;;18.66;100.00;100426.70;1717206;81;21602;-88
2022/07/21 06:19:16;;;;;;;5.37;3.00;;;;;;;18.82;100.00;100412.58;1719233;82;21038;-88
2022/07/21 06:21:43;;;;;;;4.60;3.45;;;;;;;18.95;100.00;100410.72;1724011;82;21026;-87
2022/07/21 06:24:11;;;;;;;4.85;3.27;;;;;;;19.07;100.00;100410.61;1720016;82;21054;-87
2022/07/21 06:26:39;;;;;;;3.55;3.05;;;;;;;19.20;100.00;100405.26;1724231;82;21077;-89
2022/07/21 06:29:07;;;;;;;5.08;3.15;;;;;;;19.29;100.00;100398.08;1714979;82;21129;-88
2022/07/21 06:31:35;;;;;;;5.05;4.17;;;;;;;19.38;100.00;100397.86;1727870;82;21048;-87
2022/07/21 06:34:02;;;;;;;3.67;3.37;;;;;;;19.49;100.00;100397.92;1725227;83;21083;-87
2022/07/21 06:36:29;;;;;;;6.62;3.60;;;;;;;19.58;100.00;100399.97;1724259;82;21590;-92
2022/07/21 06:38:56;;;;;;;6.83;4.35;;;;;;;19.67;100.00;100400.22;1715852;83;21593;-88
2022/07/21 06:41:24;;;;;;;4.70;3.47;;;;;;;19.71;100.00;100388.78;1700162;84;21133;-87
2022/07/21 06:43:52;;;;;;;3.50;3.17;;;;;;;19.74;100.00;100387.12;1712618;83;21031;-88
2022/07/21 06:46:21;;;;;;;4.25;3.58;;;;;;;19.80;100.00;100397.44;1728982;81;21040;-87
2022/07/21 06:48:48;;;;;;;3.20;2.95;;;;;;;19.90;100.00;100393.25;1714749;83;21107;-90
2022/07/21 06:51:15;;;;;;;6.67;3.15;;;;;;;20.00;100.00;100393.78;1715288;83;21016;-88
2022/07/21 06:53:43;;;;;;;4.15;2.90;;;;;;;20.05;100.00;100398.03;1712126;83;21170;-88
2022/07/21 06:56:10;;;;;;;3.60;2.20;;;;;;;20.10;100.00;100393.52;1715230;83;21523;-90
2022/07/21 06:58:38;;;;;;;5.05;2.20;;;;;;;20.17;100.00;100389.94;1714035;83;21028;-85
2022/07/21 07:01:05;;;;;;;2.67;2.40;;;;;;;20.21;100.00;100389.06;1715290;82;21024;-87
2022/07/21 07:03:33;;;;;;;2.47;1.82;;;;;;;20.24;100.00;100403.25;1714442;82;21669;-88
2022/07/21 07:06:00;;;;;;;2.40;2.00;;;;;;;20.25;100.00;100388.20;1709249;83;21126;-87
2022/07/21 07:08:27;;;;;;;5.72;1.87;;;;;;;20.29;100.00;100380.23;1701458;83;21040;-87
2022/07/21 07:10:56;;;;;;;2.58;2.15;;;;;;;20.36;100.00;100377.16;1715196;83;21116;-87
2022/07/21 07:13:24;;;;;;;3.92;2.10;;;;;;;20.48;100.00;100378.30;1711521;83;21069;-87
2022/07/21 07:15:52;;;;;;;1.90;1.30;;;;;;;20.63;100.00;100373.50;1712492;83;21505;-88
2022/07/21 07:18:21;;;;;;;2.47;1.50;;;;;;;20.70;100.00;100373.55;1712819;83;21154;-87
2022/07/21 07:20:49;;;;;;;2.15;1.90;;;;;;;20.71;100.00;100377.31;1716888;82;21017;-87
2022/07/21 07:23:16;;;;;;;3.67;1.70;;;;;;;20.76;100.00;100378.11;1716807;83;21028;-86
2022/07/21 07:25:43;;;;;;;2.42;1.85;;;;;;;20.88;100.00;100373.13;1716884;82;21535;-86
2022/07/21 07:28:10;;;;;;;3.67;2.00;;;;;;;20.94;100.00;100372.40;1715452;83;21066;-87
2022/07/21 07:30:38;;;;;;;3.65;1.87;;;;;;;20.96;100.00;100371.68;1716613;82;21171;-90
2022/07/21 07:33:06;;;;;;;5.08;2.10;;;;;;;21.00;100.00;100359.72;1717552;81;21004;-88
2022/07/21 07:35:35;;;;;;;2.58;1.47;;;;;;;21.12;100.00;100367.45;1725913;83;21575;-85
2022/07/21 07:38:02;;;;;;;1.57;1.47;;;;;;;21.25;100.00;100373.88;1774071;79;21053;-87
2022/07/21 07:40:31;;;;;;;1.75;1.60;;;;;;;21.38;100.00;100362.56;1761586;80;21041;-85
2022/07/21 07:42:59;;;;;;;3.02;2.08;;;;;;;21.43;100.00;100363.60;1754967;81;21145;-86
2022/07/21 07:45:26;;;;;;;2.15;1.98;;;;;;;21.54;100.00;100362.27;1713020;81;21030;-90
2022/07/21 07:47:54;;;;;;;3.90;1.90;;;;;;;21.59;100.00;100358.56;1737262;81;21045;-89
2022/07/21 07:50:22;;;;;;;2.95;1.77;;;;;;;21.54;100.00;100356.14;1728588;81;21447;-87
2022/07/21 07:52:49;;;;;;;2.65;1.60;;;;;;;21.46;100.00;100353.64;1744265;81;21498;-88
2022/07/21 07:55:17;;;;;;;1.80;1.70;;;;;;;21.41;100.00;100367.46;1747727;81;21061;-86
2022/07/21 07:57:45;;;;;;;2.85;1.55;;;;;;;21.44;100.00;100354.65;1740521;81;21124;-87
2022/07/21 08:00:16;;;;;;;7.20;2.35;;;;;;;21.50;100.00;100358.36;1716242;83;20994;-90
2022/07/21 08:02:43;;;;;;;6.17;1.55;;;;;;;21.49;100.00;100358.05;1717133;83;21093;-88
2022/07/21 08:05:11;;;;;;;1.65;1.55;;;;;;;21.58;100.00;100371.48;1716424;82;21037;-90
2022/07/21 08:07:40;;;;;;;4.97;1.30;;;;;;;21.74;100.00;100361.10;1720102;82;21162;-88
2022/07/21 08:10:12;;;;;;;3.33;1.35;;;;;;;21.79;100.00;100366.30;1717873;82;21050;-90
2022/07/21 08:12:39;;;;;;;5.12;1.80;;;;;;;21.79;100.00;100369.80;1723790;82;21045;-90
2022/07/21 08:15:08;;;;;;;1.82;1.55;;;;;;;21.88;100.00;100357.98;1710877;82;21082;-89
2022/07/21 08:17:37;;;;;;;2.25;1.32;;;;;;;21.99;100.00;100366.41;1738753;80;21104;-90
2022/07/21 08:20:06;;;;;;;3.00;1.50;;;;;;;22.01;100.00;100363.06;1721958;81;21801;-89
2022/07/21 08:22:34;;;;;;;3.45;1.60;;;;;;;22.02;100.00;100364.18;1724079;82;21097;-89
2022/07/21 08:25:01;;;;;;;6.80;1.75;;;;;;;22.00;100.00;100354.27;1728901;82;21077;-88
2022/07/21 08:27:29;;;;;;;3.12;1.50;;;;;;;21.88;100.00;100354.02;1721445;82;21044;-88
2022/07/21 08:29:57;;;;;;;3.12;1.40;;;;;;;21.81;100.00;100365.09;1723457;82;21069;-88
2022/07/21 08:32:24;;;;;;;2.42;1.30;;;;;;;21.82;100.00;100351.35;1695253;83;21799;-86
2022/07/21 08:34:54;;;;;;;2.75;1.50;;;;;;;21.95;100.00;100359.36;1691194;83;20995;-87
2022/07/21 08:37:21;;;;;;;1.50;1.40;;;;;;;22.05;100.00;100355.01;1708794;83;21095;-88
2022/07/21 08:39:49;;;;;;;1.67;1.40;;;;;;;22.08;100.00;100357.77;1697853;84;21080;-88
2022/07/21 08:42:17;;;;;;;2.70;1.30;;;;;;;22.16;100.00;100350.97;1702894;83;21080;-88
2022/07/21 08:44:45;;;;;;;3.50;1.60;;;;;;;22.43;100.00;100353.25;1696794;83;21793;-87
2022/07/21 08:47:12;;;;;;;2.65;1.40;;;;;;;22.54;100.00;100346.55;1689525;83;21056;-89
2022/07/21 08:49:41;;;;;;;2.72;1.30;;;;;;;22.28;95.17;100346.75;1713267;83;21077;-89
2022/07/21 08:52:09;;;;;;;7.37;1.10;;;;;;;21.92;100.00;100354.44;1697090;83;21081;-89
2022/07/21 08:54:36;;;;;;;2.25;1.20;;;;;;;21.70;100.00;100356.38;1697142;83;21076;-89
2022/07/21 08:57:04;;;;;;;1.22;1.10;;;;;;;21.64;100.00;100353.17;1695413;83;21127;-89
2022/07/21 08:59:32;;;;;;;4.53;1.50;;;;;;;21.65;100.00;100352.16;1692111;84;21570;-88
2022/07/21 09:01:59;;;;;;;1.62;1.42;;;;;;;21.62;100.00;100353.38;1692881;83;21026;-89
2022/07/21 09:04:33;;;;;;;2.70;1.70;;;;;;;21.57;100.00;100339.38;1699883;84;21024;-89
2022/07/21 09:07:05;;;;;;;2.45;1.80;;;;;;;21.50;100.00;100352.26;1694414;83;21117;-87
2022/07/21 09:09:35;;;;;;;3.62;1.67;;;;;;;21.38;100.00;100350.13;1690556;83;21106;-88
2022/07/21 09:12:04;;;;;;;3.70;1.52;;;;;;;21.28;100.00;100357.09;1700451;83;21591;-89
2022/07/21 09:14:33;;;;;;;1.55;1.42;;;;;;;21.22;100.00;100351.25;1703005;83;21066;-87
2022/07/21 09:17:03;;;;;;;1.67;1.50;;;;;;;21.31;100.00;100347.95;1704811;83;21136;-89
2022/07/21 09:22:16;;;;;;;1.30;1.20;;;;;;;21.59;100.00;100337.88;1715993;82;22105;-88
2022/07/21 09:24:50;;;;;;;1.70;1.40;;;;;;;21.57;100.00;100335.89;1703271;83;21052;-88
2022/07/21 09:27:23;;;;;;;4.30;1.40;;;;;;;21.46;100.00;100336.42;1692999;84;21077;-88
2022/07/21 09:29:55;;;;;;;2.10;1.90;;;;;;;21.41;100.00;100340.48;1718013;82;21089;-88
2022/07/21 09:32:32;;;;;;;2.27;1.60;;;;;;;21.40;100.00;100329.58;1710801;82;21618;-89
2022/07/21 09:35:10;;;;;;;1.72;1.30;;;;;;;21.40;100.00;100336.69;1705784;83;21339;-90
2022/07/21 09:37:39;;;;;;;1.60;1.35;;;;;;;21.37;100.00;100340.55;1704669;83;21033;-88
2022/07/21 09:40:13;;;;;;;2.77;1.40;;;;;;;21.36;100.00;100336.26;1707105;83;21116;-89
2022/07/21 09:42:44;;;;;;;2.00;1.40;;;;;;;21.37;100.00;100333.93;1707582;82;21073;-88
2022/07/21 09:45:16;;;;;;;3.47;1.57;;;;;;;21.39;100.00;100329.78;1706442;82;21061;-90
2022/07/21 09:47:45;;;;;;;1.70;1.20;;;;;;;21.38;100.00;100331.59;1706527;83;21158;-90
2022/07/21 09:50:16;;;;;;;2.45;1.40;;;;;;;21.36;100.00;100333.61;1701089;82;21599;-89
2022/07/21 09:52:46;;;;;;;1.32;1.22;;;;;;;21.34;100.00;100330.36;1702366;84;20991;-91
2022/07/21 09:55:16;;;;;;;5.15;1.98;;;;;;;21.31;100.00;100333.38;1697649;83;21066;-90
2022/07/21 09:57:45;;;;;;;2.87;1.45;;;;;;;21.30;100.00;100329.09;1710197;82;21029;-86
2022/07/21 10:00:17;;;;;;;3.37;1.30;;;;;;;21.29;100.00;100324.80;1693126;84;21886;-88
2022/07/21 10:02:45;;;;;;;3.52;1.40;;;;;;;21.30;100.00;100326.45;1713716;82;20967;-87
2022/07/21 10:05:18;;;;;;;4.37;1.32;;;;;;;21.32;100.00;100327.08;1686438;83;21099;-86
2022/07/21 10:07:48;;;;;;;3.22;1.10;;;;;;;21.35;100.00;100329.32;1715468;83;21264;-88
2022/07/21 10:10:18;;;;;;;1.40;1.20;;;;;;;21.35;100.00;100325.34;1708547;83;21026;-88
2022/07/21 10:12:47;;;;;;;10.65;1.30;;;;;;;21.35;100.00;100318.73;1714585;83;21028;-88
2022/07/21 10:15:15;;;;;;;1.25;1.12;;;;;;;21.38;100.00;100323.66;1714168;83;20976;-88
2022/07/21 10:17:45;;;;;;;1.57;1.30;;;;;;;21.42;100.00;100318.30;1707840;82;21030;-89
2022/07/21 10:20:30;;;;;;;2.45;1.30;;;;;;;21.49;100.00;100313.53;1703107;83;21022;-88
2022/07/21 10:23:17;;;;;;;2.15;1.30;;;;;;;21.56;100.00;100313.06;1718921;83;21030;-87
2022/07/21 10:25:46;;;;;;;3.67;1.37;;;;;;;21.62;100.00;100314.16;1693080;83;21826;-88
2022/07/21 10:28:23;;;;;;;1.47;1.10;;;;;;;21.72;100.00;100306.64;1695443;83;21014;-88
2022/07/21 10:30:56;;;;;;;6.22;1.50;;;;;;;21.79;100.00;100313.31;1676788;83;21103;-87
2022/07/21 10:33:49;;;;;;;3.40;1.92;;;;;;;21.82;100.00;100311.60;1742312;81;21116;-86
2022/07/21 10:36:34;;;;;;;2.17;1.22;;;;;;;21.79;100.00;100312.82;1718916;83;20967;-86
2022/07/21 10:39:16;;;;;;;3.50;1.55;;;;;;;21.77;100.00;100301.59;1754753;81;21227;-86
2022/07/21 10:41:53;;;;;;;1.32;1.20;;;;;;;21.84;100.00;100298.95;1729045;81;21026;-88
2022/07/21 10:44:34;;;;;;;1.82;1.00;;;;;;;22.10;100.00;100292.12;1750824;81;21081;-88
2022/07/21 10:47:17;;;;;;;3.33;1.07;;;;;;;22.30;100.00;100291.67;1714213;82;21061;-86
2022/07/21 10:50:00;;;;;;;6.00;1.20;;;;;;;22.33;100.00;100297.89;1728176;82;21073;-86
2022/07/21 10:52:42;;;;;;;4.20;1.25;;;;;;;22.39;100.00;100293.66;1734464;81;21187;-87
2022/07/21 10:55:28;;;;;;;4.10;1.22;;;;;;;22.53;100.00;100293.17;1722948;83;21591;-89
2022/07/21 10:58:32;;;;;;;1.17;1.07;;;;;;;22.62;100.00;100281.34;1710250;83;21527;-90
2022/07/21 11:01:05;;;;;;;8.05;1.30;;;;;;;22.62;100.00;100293.78;1671844;83;22254;-86
2022/07/21 11:03:39;;;;;;;3.80;1.30;;;;;;;22.48;100.00;100290.28;1695795;81;21021;-87
2022/07/21 11:06:22;;;;;;;3.15;1.32;;;;;;;22.31;100.00;100291.96;1723268;82;21140;-88
2022/07/21 11:08:53;;;;;;;1.70;1.40;;;;;;;22.12;100.00;100292.74;1722484;82;21027;-88
2022/07/21 11:11:28;;;;;;;3.37;1.30;;;;;;;21.96;100.00;100288.11;1720919;83;21018;-89
2022/07/21 11:14:06;;;;;;;2.98;1.30;;;;;;;21.82;100.00;100294.37;1723805;82;21082;-85
2022/07/21 11:16:54;;;;;;;1.65;1.40;;;;;;;21.69;100.00;100297.78;1710507;82;21030;-87
2022/07/21 11:19:42;;;;;;;2.17;1.57;;;;;;;21.57;100.00;100289.05;1719781;82;21277;-90
2022/07/21 11:22:15;;;;;;;3.37;1.32;;;;;;;21.50;100.00;100296.64;1721038;83;21026;-90
2022/07/21 11:24:47;;;;;;;1.65;1.55;;;;;;;21.46;100.00;100292.23;1722977;82;21095;-89
2022/07/21 11:27:19;;;;;;;4.65;1.50;;;;;;;21.50;100.00;100288.69;1683943;83;21017;-90
2022/07/21 11:29:48;;;;;;;3.20;1.45;;;;;;;21.54;100.00;100292.57;1708224;81;20958;-89
2022/07/21 11:32:17;;;;;;;2.85;1.60;;;;;;;21.57;100.00;100293.02;1743553;81;21080;-89